sensor_id;sensor_type;location;lat;lon;timestamp;temperature;humidity
3281;DHT22;1652;51.318;6.202;2023-04-20T00:01:06;7.10;99.90
3281;DHT22;1652;51.318;6.202;2023-04-20T00:03:32;7.10;99.90
3281;DHT22;1652;51.318;6.202;2023-04-20T00:06:01;7.10;99.90
3281;DHT22;1652;51.318;6.202;2023-04-20T00:08:28;7.10;99.90
3281;DHT22;1652;51.318;6.202;2023-04-20T00:10:55;7.20;99.90
3281;DHT22;1652;51.318;6.202;2023-04-20T00:13:21;7.20;99.90
3281;DHT22;1652;51.318;6.202;2023-04-20T00:15:48;7.20;99.90
3281;DHT22;1652;51.318;6.202;2023-04-20T00:18:15;7.10;99.90
3281;DHT22;1652;51.318;6.202;2023-04-20T00:20:42;7.10;99.90
3281;DHT22;1652;51.318;6.202;2023-04-20T00:23:09;7.10;99.90
3281;DHT22;1652;51.318;6.202;2023-04-20T00:25:36;7.10;99.90
3281;DHT22;1652;51.318;6.202;2023-04-20T00:28:03;7.00;99.90
3281;DHT22;1652;51.318;6.202;2023-04-20T00:30:30;7.00;99.90
3281;DHT22;1652;51.318;6.202;2023-04-20T00:32:57;7.00;99.90
3281;DHT22;1652;51.318;6.202;2023-04-20T00:35:24;7.00;99.90
3281;DHT22;1652;51.318;6.202;2023-04-20T00:37:51;6.90;99.90
3281;DHT22;1652;51.318;6.202;2023-04-20T00:40:18;6.90;99.90
3281;DHT22;1652;51.318;6.202;2023-04-20T00:42:45;6.90;99.90
3281;DHT22;1652;51.318;6.202;2023-04-20T00:45:11;6.90;99.90
3281;DHT22;1652;51.318;6.202;2023-04-20T00:47:38;6.80;99.90
3281;DHT22;1652;51.318;6.202;2023-04-20T00:50:06;6.70;99.90
3281;DHT22;1652;51.318;6.202;2023-04-20T00:52:33;6.70;99.90
3281;DHT22;1652;51.318;6.202;2023-04-20T00:55:00;6.80;99.90
3281;DHT22;1652;51.318;6.202;2023-04-20T00:57:27;6.90;99.90
3281;DHT22;1652;51.318;6.202;2023-04-20T00:59:54;6.90;99.90
3281;DHT22;1652;51.318;6.202;2023-04-20T01:02:21;7.00;99.90
3281;DHT22;1652;51.318;6.202;2023-04-20T01:04:48;7.00;99.90
3281;DHT22;1652;51.318;6.202;2023-04-20T01:07:15;7.00;99.90
3281;DHT22;1652;51.318;6.202;2023-04-20T01:09:42;7.10;99.90
3281;DHT22;1652;51.318;6.202;2023-04-20T01:12:09;7.00;99.90
3281;DHT22;1652;51.318;6.202;2023-04-20T01:14:37;7.10;99.90
3281;DHT22;1652;51.318;6.202;2023-04-20T01:17:04;7.10;99.90
3281;DHT22;1652;51.318;6.202;2023-04-20T01:19:32;7.00;99.90
3281;DHT22;1652;51.318;6.202;2023-04-20T01:21:59;6.90;99.90
3281;DHT22;1652;51.318;6.202;2023-04-20T01:24:26;7.00;99.90
3281;DHT22;1652;51.318;6.202;2023-04-20T01:26:53;7.00;99.90
3281;DHT22;1652;51.318;6.202;2023-04-20T01:29:20;7.10;99.90
3281;DHT22;1652;51.318;6.202;2023-04-20T01:31:47;7.10;99.90
3281;DHT22;1652;51.318;6.202;2023-04-20T01:34:14;7.10;99.90
3281;DHT22;1652;51.318;6.202;2023-04-20T01:36:43;7.10;99.90
3281;DHT22;1652;51.318;6.202;2023-04-20T01:39:10;7.20;99.90
3281;DHT22;1652;51.318;6.202;2023-04-20T01:41:38;7.20;99.90
3281;DHT22;1652;51.318;6.202;2023-04-20T01:44:05;7.10;99.90
3281;DHT22;1652;51.318;6.202;2023-04-20T01:46:32;7.10;99.90
3281;DHT22;1652;51.318;6.202;2023-04-20T01:48:59;7.00;99.90
3281;DHT22;1652;51.318;6.202;2023-04-20T01:51:26;7.00;99.90
3281;DHT22;1652;51.318;6.202;2023-04-20T01:53:53;7.00;99.90
3281;DHT22;1652;51.318;6.202;2023-04-20T01:56:20;7.00;99.90
3281;DHT22;1652;51.318;6.202;2023-04-20T01:58:47;7.00;99.90
3281;DHT22;1652;51.318;6.202;2023-04-20T02:01:14;6.90;99.90
3281;DHT22;1652;51.318;6.202;2023-04-20T02:03:41;6.90;99.90
3281;DHT22;1652;51.318;6.202;2023-04-20T02:06:08;6.90;99.90
3281;DHT22;1652;51.318;6.202;2023-04-20T02:08:35;6.80;99.90
3281;DHT22;1652;51.318;6.202;2023-04-20T02:11:02;6.80;99.90
3281;DHT22;1652;51.318;6.202;2023-04-20T02:13:28;6.80;99.90
3281;DHT22;1652;51.318;6.202;2023-04-20T02:15:55;6.70;99.90
3281;DHT22;1652;51.318;6.202;2023-04-20T02:18:22;6.70;99.90
3281;DHT22;1652;51.318;6.202;2023-04-20T02:20:50;6.70;99.90
3281;DHT22;1652;51.318;6.202;2023-04-20T02:23:17;6.80;99.90
3281;DHT22;1652;51.318;6.202;2023-04-20T02:25:44;6.70;99.90
3281;DHT22;1652;51.318;6.202;2023-04-20T02:28:11;6.70;99.90
3281;DHT22;1652;51.318;6.202;2023-04-20T02:30:37;6.80;99.90
3281;DHT22;1652;51.318;6.202;2023-04-20T02:33:04;6.80;99.90
3281;DHT22;1652;51.318;6.202;2023-04-20T02:35:31;6.80;99.90
3281;DHT22;1652;51.318;6.202;2023-04-20T02:37:58;6.90;99.90
3281;DHT22;1652;51.318;6.202;2023-04-20T02:40:25;6.90;99.90
3281;DHT22;1652;51.318;6.202;2023-04-20T02:42:52;6.90;99.90
3281;DHT22;1652;51.318;6.202;2023-04-20T02:45:19;6.80;99.90
3281;DHT22;1652;51.318;6.202;2023-04-20T02:47:46;6.80;99.90
3281;DHT22;1652;51.318;6.202;2023-04-20T02:50:13;6.80;99.90
3281;DHT22;1652;51.318;6.202;2023-04-20T02:52:40;6.80;99.90
3281;DHT22;1652;51.318;6.202;2023-04-20T02:55:07;6.80;99.90
3281;DHT22;1652;51.318;6.202;2023-04-20T02:57:34;6.80;99.90
3281;DHT22;1652;51.318;6.202;2023-04-20T03:00:00;6.70;99.90
3281;DHT22;1652;51.318;6.202;2023-04-20T03:02:28;6.70;99.90
3281;DHT22;1652;51.318;6.202;2023-04-20T03:04:55;6.70;99.90
3281;DHT22;1652;51.318;6.202;2023-04-20T03:07:22;6.70;99.90
3281;DHT22;1652;51.318;6.202;2023-04-20T03:09:49;6.70;99.90
3281;DHT22;1652;51.318;6.202;2023-04-20T03:12:16;6.70;99.90
3281;DHT22;1652;51.318;6.202;2023-04-20T03:14:44;6.70;99.90
3281;DHT22;1652;51.318;6.202;2023-04-20T03:17:11;6.70;99.90
3281;DHT22;1652;51.318;6.202;2023-04-20T03:19:38;6.70;99.90
3281;DHT22;1652;51.318;6.202;2023-04-20T03:22:05;6.70;99.90
3281;DHT22;1652;51.318;6.202;2023-04-20T03:24:32;6.70;99.90
3281;DHT22;1652;51.318;6.202;2023-04-20T03:26:59;6.70;99.90
3281;DHT22;1652;51.318;6.202;2023-04-20T03:29:26;6.70;99.90
3281;DHT22;1652;51.318;6.202;2023-04-20T03:31:53;6.80;99.90
3281;DHT22;1652;51.318;6.202;2023-04-20T03:34:20;6.80;99.90
3281;DHT22;1652;51.318;6.202;2023-04-20T03:36:47;6.80;99.90
3281;DHT22;1652;51.318;6.202;2023-04-20T03:39:14;6.70;99.90
3281;DHT22;1652;51.318;6.202;2023-04-20T03:41:58;6.80;99.90
3281;DHT22;1652;51.318;6.202;2023-04-20T03:44:25;6.70;99.90
3281;DHT22;1652;51.318;6.202;2023-04-20T03:46:52;6.70;99.90
3281;DHT22;1652;51.318;6.202;2023-04-20T03:49:23;6.70;99.90
3281;DHT22;1652;51.318;6.202;2023-04-20T03:51:50;6.70;99.90
3281;DHT22;1652;51.318;6.202;2023-04-20T03:54:17;6.70;99.90
3281;DHT22;1652;51.318;6.202;2023-04-20T03:56:44;6.80;99.90
3281;DHT22;1652;51.318;6.202;2023-04-20T03:59:11;6.70;99.90
3281;DHT22;1652;51.318;6.202;2023-04-20T04:01:38;6.60;99.90
3281;DHT22;1652;51.318;6.202;2023-04-20T04:04:05;6.70;99.90
3281;DHT22;1652;51.318;6.202;2023-04-20T04:06:32;6.70;99.90
3281;DHT22;1652;51.318;6.202;2023-04-20T04:08:59;6.80;99.90
3281;DHT22;1652;51.318;6.202;2023-04-20T04:11:26;6.70;99.90
3281;DHT22;1652;51.318;6.202;2023-04-20T04:13:57;6.70;99.90
3281;DHT22;1652;51.318;6.202;2023-04-20T04:16:24;6.70;99.90
3281;DHT22;1652;51.318;6.202;2023-04-20T04:18:51;6.70;99.90
3281;DHT22;1652;51.318;6.202;2023-04-20T04:21:18;6.70;99.90
3281;DHT22;1652;51.318;6.202;2023-04-20T04:23:45;6.70;99.90
3281;DHT22;1652;51.318;6.202;2023-04-20T04:26:12;6.70;99.90
3281;DHT22;1652;51.318;6.202;2023-04-20T04:28:39;6.70;99.90
3281;DHT22;1652;51.318;6.202;2023-04-20T04:31:06;6.70;99.90
3281;DHT22;1652;51.318;6.202;2023-04-20T04:33:33;6.70;99.90
3281;DHT22;1652;51.318;6.202;2023-04-20T04:36:00;6.70;99.90
3281;DHT22;1652;51.318;6.202;2023-04-20T04:38:28;6.80;99.90
3281;DHT22;1652;51.318;6.202;2023-04-20T04:40:55;6.80;99.90
3281;DHT22;1652;51.318;6.202;2023-04-20T04:43:22;6.80;99.90
3281;DHT22;1652;51.318;6.202;2023-04-20T04:45:51;6.90;99.90
3281;DHT22;1652;51.318;6.202;2023-04-20T04:48:19;6.90;99.90
3281;DHT22;1652;51.318;6.202;2023-04-20T04:50:46;6.90;99.90
3281;DHT22;1652;51.318;6.202;2023-04-20T04:53:13;6.90;99.90
3281;DHT22;1652;51.318;6.202;2023-04-20T04:55:39;7.00;99.90
3281;DHT22;1652;51.318;6.202;2023-04-20T04:58:06;7.00;99.90
3281;DHT22;1652;51.318;6.202;2023-04-20T05:00:33;7.00;99.90
3281;DHT22;1652;51.318;6.202;2023-04-20T05:03:03;7.00;99.90
3281;DHT22;1652;51.318;6.202;2023-04-20T05:05:30;7.10;99.90
3281;DHT22;1652;51.318;6.202;2023-04-20T05:08:00;7.10;99.90
3281;DHT22;1652;51.318;6.202;2023-04-20T05:10:27;7.10;99.90
3281;DHT22;1652;51.318;6.202;2023-04-20T05:12:54;7.20;99.90
3281;DHT22;1652;51.318;6.202;2023-04-20T05:15:21;7.20;99.90
3281;DHT22;1652;51.318;6.202;2023-04-20T05:17:48;7.20;99.90
3281;DHT22;1652;51.318;6.202;2023-04-20T05:20:15;7.20;99.90
3281;DHT22;1652;51.318;6.202;2023-04-20T05:22:42;7.20;99.90
3281;DHT22;1652;51.318;6.202;2023-04-20T05:25:09;7.40;99.90
3281;DHT22;1652;51.318;6.202;2023-04-20T05:27:39;7.40;99.90
3281;DHT22;1652;51.318;6.202;2023-04-20T05:30:06;7.50;99.90
3281;DHT22;1652;51.318;6.202;2023-04-20T05:32:46;7.50;99.90
3281;DHT22;1652;51.318;6.202;2023-04-20T05:35:17;7.50;99.90
3281;DHT22;1652;51.318;6.202;2023-04-20T05:37:44;7.50;99.90
3281;DHT22;1652;51.318;6.202;2023-04-20T05:40:11;7.40;99.90
3281;DHT22;1652;51.318;6.202;2023-04-20T05:42:37;7.50;99.90
3281;DHT22;1652;51.318;6.202;2023-04-20T05:45:05;7.40;99.90
3281;DHT22;1652;51.318;6.202;2023-04-20T05:47:32;7.40;99.90
3281;DHT22;1652;51.318;6.202;2023-04-20T05:49:59;7.40;99.90
3281;DHT22;1652;51.318;6.202;2023-04-20T05:52:26;7.30;99.90
3281;DHT22;1652;51.318;6.202;2023-04-20T05:54:53;7.30;99.90
3281;DHT22;1652;51.318;6.202;2023-04-20T05:57:20;7.30;99.90
3281;DHT22;1652;51.318;6.202;2023-04-20T05:59:48;7.40;99.90
3281;DHT22;1652;51.318;6.202;2023-04-20T06:02:15;7.30;99.90
3281;DHT22;1652;51.318;6.202;2023-04-20T06:04:42;7.30;99.90
3281;DHT22;1652;51.318;6.202;2023-04-20T06:07:10;7.30;99.90
3281;DHT22;1652;51.318;6.202;2023-04-20T06:09:37;7.30;99.90
3281;DHT22;1652;51.318;6.202;2023-04-20T06:12:04;7.30;99.90
3281;DHT22;1652;51.318;6.202;2023-04-20T06:14:31;7.40;99.90
3281;DHT22;1652;51.318;6.202;2023-04-20T06:16:58;7.40;99.90
3281;DHT22;1652;51.318;6.202;2023-04-20T06:19:25;7.40;99.90
3281;DHT22;1652;51.318;6.202;2023-04-20T06:21:52;7.40;99.90
3281;DHT22;1652;51.318;6.202;2023-04-20T06:24:19;7.40;99.90
3281;DHT22;1652;51.318;6.202;2023-04-20T06:26:46;7.40;99.90
3281;DHT22;1652;51.318;6.202;2023-04-20T06:29:12;7.50;99.90
3281;DHT22;1652;51.318;6.202;2023-04-20T06:31:39;7.70;99.90
3281;DHT22;1652;51.318;6.202;2023-04-20T06:34:06;8.00;99.90
3281;DHT22;1652;51.318;6.202;2023-04-20T06:36:34;8.10;99.90
3281;DHT22;1652;51.318;6.202;2023-04-20T06:39:01;8.00;99.90
3281;DHT22;1652;51.318;6.202;2023-04-20T06:41:28;8.00;99.90
3281;DHT22;1652;51.318;6.202;2023-04-20T06:43:54;8.00;99.90
3281;DHT22;1652;51.318;6.202;2023-04-20T06:46:21;7.90;99.90
3281;DHT22;1652;51.318;6.202;2023-04-20T06:48:48;8.00;99.90
3281;DHT22;1652;51.318;6.202;2023-04-20T06:51:15;8.50;99.90
3281;DHT22;1652;51.318;6.202;2023-04-20T06:53:42;8.80;99.90
3281;DHT22;1652;51.318;6.202;2023-04-20T06:56:09;8.60;99.90
3281;DHT22;1652;51.318;6.202;2023-04-20T06:58:36;8.50;99.90
3281;DHT22;1652;51.318;6.202;2023-04-20T07:01:04;8.50;99.90
3281;DHT22;1652;51.318;6.202;2023-04-20T07:03:31;8.30;99.90
3281;DHT22;1652;51.318;6.202;2023-04-20T07:05:58;8.10;99.90
3281;DHT22;1652;51.318;6.202;2023-04-20T07:08:25;8.00;99.90
3281;DHT22;1652;51.318;6.202;2023-04-20T07:10:51;7.90;99.90
3281;DHT22;1652;51.318;6.202;2023-04-20T07:13:18;8.00;99.90
3281;DHT22;1652;51.318;6.202;2023-04-20T07:15:45;8.00;99.90
3281;DHT22;1652;51.318;6.202;2023-04-20T07:18:12;8.00;99.90
3281;DHT22;1652;51.318;6.202;2023-04-20T07:20:39;7.80;99.90
3281;DHT22;1652;51.318;6.202;2023-04-20T07:23:06;7.70;99.90
3281;DHT22;1652;51.318;6.202;2023-04-20T07:25:33;7.80;99.90
3281;DHT22;1652;51.318;6.202;2023-04-20T07:28:00;7.80;99.90
3281;DHT22;1652;51.318;6.202;2023-04-20T07:30:27;7.90;99.90
3281;DHT22;1652;51.318;6.202;2023-04-20T07:32:53;7.90;99.90
3281;DHT22;1652;51.318;6.202;2023-04-20T07:35:21;8.10;99.90
3281;DHT22;1652;51.318;6.202;2023-04-20T07:37:48;8.00;99.90
3281;DHT22;1652;51.318;6.202;2023-04-20T07:40:14;8.00;99.90
3281;DHT22;1652;51.318;6.202;2023-04-20T07:42:42;8.10;99.90
3281;DHT22;1652;51.318;6.202;2023-04-20T07:45:10;7.90;99.90
3281;DHT22;1652;51.318;6.202;2023-04-20T07:47:37;7.80;99.90
3281;DHT22;1652;51.318;6.202;2023-04-20T07:50:05;7.80;99.90
3281;DHT22;1652;51.318;6.202;2023-04-20T07:52:33;8.00;99.90
3281;DHT22;1652;51.318;6.202;2023-04-20T07:55:00;8.10;99.90
3281;DHT22;1652;51.318;6.202;2023-04-20T07:57:27;8.00;99.90
3281;DHT22;1652;51.318;6.202;2023-04-20T07:59:55;7.80;99.90
3281;DHT22;1652;51.318;6.202;2023-04-20T08:02:21;7.60;99.90
3281;DHT22;1652;51.318;6.202;2023-04-20T08:04:48;7.50;99.90
3281;DHT22;1652;51.318;6.202;2023-04-20T08:07:16;7.50;99.90
3281;DHT22;1652;51.318;6.202;2023-04-20T08:09:43;7.50;99.90
3281;DHT22;1652;51.318;6.202;2023-04-20T08:12:10;7.60;99.90
3281;DHT22;1652;51.318;6.202;2023-04-20T08:14:37;7.60;99.90
3281;DHT22;1652;51.318;6.202;2023-04-20T08:17:04;7.60;99.90
3281;DHT22;1652;51.318;6.202;2023-04-20T08:19:31;7.50;99.90
3281;DHT22;1652;51.318;6.202;2023-04-20T08:21:58;7.40;99.90
3281;DHT22;1652;51.318;6.202;2023-04-20T08:24:26;7.40;99.90
3281;DHT22;1652;51.318;6.202;2023-04-20T08:26:53;7.50;99.90
3281;DHT22;1652;51.318;6.202;2023-04-20T08:29:20;7.70;99.90
3281;DHT22;1652;51.318;6.202;2023-04-20T08:31:47;7.90;99.90
3281;DHT22;1652;51.318;6.202;2023-04-20T08:34:16;8.10;99.90
3281;DHT22;1652;51.318;6.202;2023-04-20T08:36:43;8.40;99.90
3281;DHT22;1652;51.318;6.202;2023-04-20T08:39:12;8.50;99.90
3281;DHT22;1652;51.318;6.202;2023-04-20T08:41:50;8.70;99.90
3281;DHT22;1652;51.318;6.202;2023-04-20T08:44:21;8.80;99.90
3281;DHT22;1652;51.318;6.202;2023-04-20T08:46:49;8.90;99.90
3281;DHT22;1652;51.318;6.202;2023-04-20T08:49:17;9.20;99.90
3281;DHT22;1652;51.318;6.202;2023-04-20T08:51:45;9.20;99.90
3281;DHT22;1652;51.318;6.202;2023-04-20T08:54:13;9.30;99.90
3281;DHT22;1652;51.318;6.202;2023-04-20T08:56:43;9.20;99.90
3281;DHT22;1652;51.318;6.202;2023-04-20T08:59:10;9.10;99.90
3281;DHT22;1652;51.318;6.202;2023-04-20T09:01:40;9.20;99.90
3281;DHT22;1652;51.318;6.202;2023-04-20T09:04:24;9.00;99.90
3281;DHT22;1652;51.318;6.202;2023-04-20T09:06:55;9.00;99.90
3281;DHT22;1652;51.318;6.202;2023-04-20T09:09:23;8.90;99.90
3281;DHT22;1652;51.318;6.202;2023-04-20T09:12:05;8.80;99.90
3281;DHT22;1652;51.318;6.202;2023-04-20T09:14:44;8.70;99.90
3281;DHT22;1652;51.318;6.202;2023-04-20T09:17:12;8.90;99.90
3281;DHT22;1652;51.318;6.202;2023-04-20T09:19:43;8.90;99.90
3281;DHT22;1652;51.318;6.202;2023-04-20T09:22:10;8.80;99.90
3281;DHT22;1652;51.318;6.202;2023-04-20T09:24:38;8.90;99.90
3281;DHT22;1652;51.318;6.202;2023-04-20T09:27:17;8.90;99.90
3281;DHT22;1652;51.318;6.202;2023-04-20T09:29:56;8.90;99.90
3281;DHT22;1652;51.318;6.202;2023-04-20T09:32:24;8.90;99.90
3281;DHT22;1652;51.318;6.202;2023-04-20T09:34:51;8.90;99.90
3281;DHT22;1652;51.318;6.202;2023-04-20T09:37:18;8.90;99.90
3281;DHT22;1652;51.318;6.202;2023-04-20T09:39:45;9.00;99.90
3281;DHT22;1652;51.318;6.202;2023-04-20T09:42:14;9.10;99.90
3281;DHT22;1652;51.318;6.202;2023-04-20T09:44:42;9.10;99.90
3281;DHT22;1652;51.318;6.202;2023-04-20T09:47:17;9.10;99.90
3281;DHT22;1652;51.318;6.202;2023-04-20T09:49:45;9.00;99.90
3281;DHT22;1652;51.318;6.202;2023-04-20T09:52:16;8.90;99.90
3281;DHT22;1652;51.318;6.202;2023-04-20T09:54:44;9.00;99.90
3281;DHT22;1652;51.318;6.202;2023-04-20T09:57:13;9.00;99.90
3281;DHT22;1652;51.318;6.202;2023-04-20T09:59:42;8.90;99.90
3281;DHT22;1652;51.318;6.202;2023-04-20T10:02:10;8.80;99.90
3281;DHT22;1652;51.318;6.202;2023-04-20T10:04:56;8.70;99.90
3281;DHT22;1652;51.318;6.202;2023-04-20T10:07:27;8.60;99.90
3281;DHT22;1652;51.318;6.202;2023-04-20T10:12:49;8.50;99.90
3281;DHT22;1652;51.318;6.202;2023-04-20T10:15:16;8.40;99.90
3281;DHT22;1652;51.318;6.202;2023-04-20T10:17:44;8.40;99.90
3281;DHT22;1652;51.318;6.202;2023-04-20T10:20:27;8.40;99.90
3281;DHT22;1652;51.318;6.202;2023-04-20T10:23:07;8.30;99.90
3281;DHT22;1652;51.318;6.202;2023-04-20T10:25:35;8.30;99.90
3281;DHT22;1652;51.318;6.202;2023-04-20T10:28:04;8.20;99.90
3281;DHT22;1652;51.318;6.202;2023-04-20T10:30:34;8.20;99.90
3281;DHT22;1652;51.318;6.202;2023-04-20T10:33:11;8.20;99.90
3281;DHT22;1652;51.318;6.202;2023-04-20T10:35:48;8.00;99.90
3281;DHT22;1652;51.318;6.202;2023-04-20T10:38:34;7.50;99.90
3281;DHT22;1652;51.318;6.202;2023-04-20T10:41:09;7.00;99.90
3281;DHT22;1652;51.318;6.202;2023-04-20T10:43:36;6.90;99.90
3281;DHT22;1652;51.318;6.202;2023-04-20T10:46:18;7.10;99.90
3281;DHT22;1652;51.318;6.202;2023-04-20T10:48:50;7.40;99.90
3281;DHT22;1652;51.318;6.202;2023-04-20T10:51:18;7.60;99.90
3281;DHT22;1652;51.318;6.202;2023-04-20T10:53:45;7.80;99.90
3281;DHT22;1652;51.318;6.202;2023-04-20T10:56:12;8.00;99.90
3281;DHT22;1652;51.318;6.202;2023-04-20T10:58:38;8.10;99.90
3281;DHT22;1652;51.318;6.202;2023-04-20T11:01:06;8.10;99.90
3281;DHT22;1652;51.318;6.202;2023-04-20T11:03:33;8.10;99.90
3281;DHT22;1652;51.318;6.202;2023-04-20T11:06:01;8.20;99.90
3281;DHT22;1652;51.318;6.202;2023-04-20T11:08:39;8.50;99.90
3281;DHT22;1652;51.318;6.202;2023-04-20T11:11:18;8.70;99.90
3281;DHT22;1652;51.318;6.202;2023-04-20T11:13:45;9.00;99.90
3281;DHT22;1652;51.318;6.202;2023-04-20T11:16:14;9.30;99.90
3281;DHT22;1652;51.318;6.202;2023-04-20T11:18:56;9.50;99.90
3281;DHT22;1652;51.318;6.202;2023-04-20T11:21:38;9.40;99.90
3281;DHT22;1652;51.318;6.202;2023-04-20T11:24:19;9.20;99.90
3281;DHT22;1652;51.318;6.202;2023-04-20T11:26:47;9.10;99.90
3281;DHT22;1652;51.318;6.202;2023-04-20T11:29:29;9.40;99.90
3281;DHT22;1652;51.318;6.202;2023-04-20T11:31:57;9.70;99.90
3281;DHT22;1652;51.318;6.202;2023-04-20T11:34:24;9.90;99.90
3281;DHT22;1652;51.318;6.202;2023-04-20T11:36:51;10.10;99.90
3281;DHT22;1652;51.318;6.202;2023-04-20T11:39:26;10.10;99.90
3281;DHT22;1652;51.318;6.202;2023-04-20T11:41:53;10.10;99.90
3281;DHT22;1652;51.318;6.202;2023-04-20T11:44:20;10.20;99.90
3281;DHT22;1652;51.318;6.202;2023-04-20T11:46:47;10.10;99.90
3281;DHT22;1652;51.318;6.202;2023-04-20T11:49:19;9.70;99.90
3281;DHT22;1652;51.318;6.202;2023-04-20T11:51:48;9.00;99.90
3281;DHT22;1652;51.318;6.202;2023-04-20T11:54:15;8.40;99.90
3281;DHT22;1652;51.318;6.202;2023-04-20T11:56:45;8.20;99.90
3281;DHT22;1652;51.318;6.202;2023-04-20T11:59:12;8.20;99.90
3281;DHT22;1652;51.318;6.202;2023-04-20T12:01:46;8.30;99.90
3281;DHT22;1652;51.318;6.202;2023-04-20T12:04:13;8.50;99.90
3281;DHT22;1652;51.318;6.202;2023-04-20T12:06:41;8.60;99.90
3281;DHT22;1652;51.318;6.202;2023-04-20T12:09:09;8.80;99.90
3281;DHT22;1652;51.318;6.202;2023-04-20T12:11:36;9.10;99.90
3281;DHT22;1652;51.318;6.202;2023-04-20T12:14:02;9.40;99.90
3281;DHT22;1652;51.318;6.202;2023-04-20T12:16:30;9.50;99.90
3281;DHT22;1652;51.318;6.202;2023-04-20T12:18:57;9.80;99.90
3281;DHT22;1652;51.318;6.202;2023-04-20T12:21:24;10.00;99.90
3281;DHT22;1652;51.318;6.202;2023-04-20T12:23:52;10.10;99.90
3281;DHT22;1652;51.318;6.202;2023-04-20T12:26:19;9.90;99.90
3281;DHT22;1652;51.318;6.202;2023-04-20T12:28:50;9.40;99.90
3281;DHT22;1652;51.318;6.202;2023-04-20T12:31:17;9.10;99.90
3281;DHT22;1652;51.318;6.202;2023-04-20T12:33:44;9.10;99.90
3281;DHT22;1652;51.318;6.202;2023-04-20T12:36:11;9.30;99.90
3281;DHT22;1652;51.318;6.202;2023-04-20T12:38:38;9.60;99.90
3281;DHT22;1652;51.318;6.202;2023-04-20T12:41:05;9.70;99.90
3281;DHT22;1652;51.318;6.202;2023-04-20T12:43:32;9.80;99.90
3281;DHT22;1652;51.318;6.202;2023-04-20T12:45:58;9.70;99.90
3281;DHT22;1652;51.318;6.202;2023-04-20T12:48:25;9.60;99.90
3281;DHT22;1652;51.318;6.202;2023-04-20T12:50:52;9.60;99.90
3281;DHT22;1652;51.318;6.202;2023-04-20T12:53:19;9.70;99.90
3281;DHT22;1652;51.318;6.202;2023-04-20T12:55:46;9.90;99.90
3281;DHT22;1652;51.318;6.202;2023-04-20T12:58:18;10.10;99.90
3281;DHT22;1652;51.318;6.202;2023-04-20T13:00:45;10.20;99.90
3281;DHT22;1652;51.318;6.202;2023-04-20T13:03:12;10.40;99.90
3281;DHT22;1652;51.318;6.202;2023-04-20T13:05:39;10.60;99.90
3281;DHT22;1652;51.318;6.202;2023-04-20T13:08:06;10.90;99.90
3281;DHT22;1652;51.318;6.202;2023-04-20T13:10:34;11.20;99.90
3281;DHT22;1652;51.318;6.202;2023-04-20T13:13:01;11.20;99.90
3281;DHT22;1652;51.318;6.202;2023-04-20T13:15:28;11.00;99.90
3281;DHT22;1652;51.318;6.202;2023-04-20T13:18:05;10.90;99.90
3281;DHT22;1652;51.318;6.202;2023-04-20T13:33:55;11.40;99.90
3281;DHT22;1652;51.318;6.202;2023-04-20T13:36:23;11.10;99.90
3281;DHT22;1652;51.318;6.202;2023-04-20T13:38:50;10.80;99.90
3281;DHT22;1652;51.318;6.202;2023-04-20T13:41:19;10.50;99.90
3281;DHT22;1652;51.318;6.202;2023-04-20T13:43:46;10.60;99.90
3281;DHT22;1652;51.318;6.202;2023-04-20T13:46:12;10.70;99.90
3281;DHT22;1652;51.318;6.202;2023-04-20T13:48:41;10.90;99.90
3281;DHT22;1652;51.318;6.202;2023-04-20T13:51:08;11.20;99.90
3281;DHT22;1652;51.318;6.202;2023-04-20T13:53:34;11.40;99.90
3281;DHT22;1652;51.318;6.202;2023-04-20T13:56:01;11.50;99.90
3281;DHT22;1652;51.318;6.202;2023-04-20T13:58:30;11.60;99.90
3281;DHT22;1652;51.318;6.202;2023-04-20T14:00:57;11.60;99.90
3281;DHT22;1652;51.318;6.202;2023-04-20T14:03:24;11.60;99.90
3281;DHT22;1652;51.318;6.202;2023-04-20T14:05:52;11.50;99.90
3281;DHT22;1652;51.318;6.202;2023-04-20T14:08:19;11.40;99.90
3281;DHT22;1652;51.318;6.202;2023-04-20T14:10:46;11.30;99.90
3281;DHT22;1652;51.318;6.202;2023-04-20T14:13:13;11.20;99.90
3281;DHT22;1652;51.318;6.202;2023-04-20T14:15:40;11.10;99.90
3281;DHT22;1652;51.318;6.202;2023-04-20T14:18:07;11.20;99.90
3281;DHT22;1652;51.318;6.202;2023-04-20T14:20:34;11.30;99.90
3281;DHT22;1652;51.318;6.202;2023-04-20T14:23:01;11.50;99.90
3281;DHT22;1652;51.318;6.202;2023-04-20T14:25:28;11.70;99.90
3281;DHT22;1652;51.318;6.202;2023-04-20T14:27:54;11.90;99.90
3281;DHT22;1652;51.318;6.202;2023-04-20T14:30:21;12.00;99.90
3281;DHT22;1652;51.318;6.202;2023-04-20T14:32:53;12.00;99.90
3281;DHT22;1652;51.318;6.202;2023-04-20T14:35:22;11.90;99.90
3281;DHT22;1652;51.318;6.202;2023-04-20T14:37:49;11.90;99.90
3281;DHT22;1652;51.318;6.202;2023-04-20T14:40:16;11.90;99.90
3281;DHT22;1652;51.318;6.202;2023-04-20T14:42:44;11.70;99.90
3281;DHT22;1652;51.318;6.202;2023-04-20T14:45:11;11.60;99.90
3281;DHT22;1652;51.318;6.202;2023-04-20T14:47:38;11.40;99.90
3281;DHT22;1652;51.318;6.202;2023-04-20T14:50:07;11.30;99.90
3281;DHT22;1652;51.318;6.202;2023-04-20T14:52:34;11.30;99.90
3281;DHT22;1652;51.318;6.202;2023-04-20T14:55:02;11.30;99.90
3281;DHT22;1652;51.318;6.202;2023-04-20T14:57:29;11.30;99.90
3281;DHT22;1652;51.318;6.202;2023-04-20T14:59:57;11.30;99.90
3281;DHT22;1652;51.318;6.202;2023-04-20T15:02:24;11.30;99.90
3281;DHT22;1652;51.318;6.202;2023-04-20T15:04:51;11.30;99.90
3281;DHT22;1652;51.318;6.202;2023-04-20T15:07:18;11.40;99.90
3281;DHT22;1652;51.318;6.202;2023-04-20T15:09:45;11.60;99.90
3281;DHT22;1652;51.318;6.202;2023-04-20T15:12:12;11.70;99.90
3281;DHT22;1652;51.318;6.202;2023-04-20T15:14:39;11.80;99.90
3281;DHT22;1652;51.318;6.202;2023-04-20T15:17:05;11.80;99.90
3281;DHT22;1652;51.318;6.202;2023-04-20T15:19:32;11.90;99.90
3281;DHT22;1652;51.318;6.202;2023-04-20T15:21:59;12.00;99.90
3281;DHT22;1652;51.318;6.202;2023-04-20T15:24:26;12.20;99.90
3281;DHT22;1652;51.318;6.202;2023-04-20T15:26:53;12.20;99.90
3281;DHT22;1652;51.318;6.202;2023-04-20T15:29:20;12.20;99.90
3281;DHT22;1652;51.318;6.202;2023-04-20T15:31:47;11.70;99.90
3281;DHT22;1652;51.318;6.202;2023-04-20T15:34:14;11.10;99.90
3281;DHT22;1652;51.318;6.202;2023-04-20T15:36:43;10.70;99.90
3281;DHT22;1652;51.318;6.202;2023-04-20T15:39:10;10.50;99.90
3281;DHT22;1652;51.318;6.202;2023-04-20T15:41:38;10.40;99.90
3281;DHT22;1652;51.318;6.202;2023-04-20T15:44:05;10.30;99.90
3281;DHT22;1652;51.318;6.202;2023-04-20T15:46:32;10.30;99.90
3281;DHT22;1652;51.318;6.202;2023-04-20T15:48:59;10.30;99.90
3281;DHT22;1652;51.318;6.202;2023-04-20T15:51:26;10.40;99.90
3281;DHT22;1652;51.318;6.202;2023-04-20T15:53:53;10.50;99.90
3281;DHT22;1652;51.318;6.202;2023-04-20T15:56:20;10.60;99.90
3281;DHT22;1652;51.318;6.202;2023-04-20T15:58:50;10.60;99.90
3281;DHT22;1652;51.318;6.202;2023-04-20T16:01:18;10.80;99.90
3281;DHT22;1652;51.318;6.202;2023-04-20T16:03:46;11.00;99.90
3281;DHT22;1652;51.318;6.202;2023-04-20T16:06:13;11.20;99.90
3281;DHT22;1652;51.318;6.202;2023-04-20T16:08:40;11.40;99.90
3281;DHT22;1652;51.318;6.202;2023-04-20T16:11:07;11.40;99.90
3281;DHT22;1652;51.318;6.202;2023-04-20T16:13:34;11.50;99.90
3281;DHT22;1652;51.318;6.202;2023-04-20T16:16:02;11.40;99.90
3281;DHT22;1652;51.318;6.202;2023-04-20T16:18:29;11.40;99.90
3281;DHT22;1652;51.318;6.202;2023-04-20T16:20:57;11.40;99.90
3281;DHT22;1652;51.318;6.202;2023-04-20T16:23:24;11.30;99.90
3281;DHT22;1652;51.318;6.202;2023-04-20T16:25:51;11.30;99.90
3281;DHT22;1652;51.318;6.202;2023-04-20T16:28:18;11.40;99.90
3281;DHT22;1652;51.318;6.202;2023-04-20T16:30:45;11.40;99.90
3281;DHT22;1652;51.318;6.202;2023-04-20T16:33:12;11.50;99.90
3281;DHT22;1652;51.318;6.202;2023-04-20T16:35:39;11.50;99.90